createdAt,value
2022-12-13T00:03:29.350Z,101130.44
2022-12-13T00:08:33.109Z,101127.91
2022-12-13T00:13:38.587Z,101125.81
2022-12-13T00:18:42.363Z,101123.69
2022-12-13T00:23:46.972Z,101114.16
2022-12-13T00:28:52.958Z,101113.16
2022-12-13T00:33:56.637Z,101115.19
2022-12-13T00:39:03.169Z,101108.03
2022-12-13T00:44:08.221Z,101102.09
2022-12-13T00:49:12.994Z,101105.91
2022-12-13T00:54:17.047Z,101096.97
2022-12-13T00:59:22.397Z,101093.56
2022-12-13T01:04:26.123Z,101091.44
2022-12-13T01:09:31.117Z,101090.97
2022-12-13T01:14:37.919Z,101083.97
2022-12-13T01:19:41.664Z,101090.66
2022-12-13T01:24:45.715Z,101076.25
2022-12-13T01:29:50.739Z,101081.31
2022-12-13T01:34:54.455Z,101081.31
2022-12-13T01:39:58.439Z,101085.31
2022-12-13T01:45:24.086Z,101086.19
2022-12-13T01:50:32.539Z,101087.84
2022-12-13T01:55:41.289Z,101081.13
2022-12-13T02:00:48.847Z,101081.41
2022-12-13T02:06:00.552Z,101079.78
2022-12-13T02:11:05.482Z,101083.59
2022-12-13T02:16:23.345Z,101086.12
2022-12-13T02:21:34.630Z,101077.53
2022-12-13T02:26:55.869Z,101076.47
2022-12-13T02:32:06.505Z,101079.59
2022-12-13T02:37:19.121Z,101071.09
2022-12-13T02:42:27.100Z,101068.56
2022-12-13T02:47:34.580Z,101067.81
2022-12-13T02:52:40.538Z,101064.25
2022-12-13T02:57:46.535Z,101061.53
2022-12-13T03:03:02.899Z,101061.09
2022-12-13T03:08:21.213Z,101060.03
2022-12-13T03:13:38.515Z,101055.72
2022-12-13T03:18:45.365Z,101055.41
2022-12-13T03:23:49.128Z,101063.16
2022-12-13T03:28:53.990Z,101059.25
2022-12-13T03:33:59.076Z,101049.41
2022-12-13T03:39:02.823Z,101052.09
2022-12-13T03:44:08.627Z,101053.41
2022-12-13T03:49:17.070Z,101047.63
2022-12-13T03:54:21.178Z,101040.63
2022-12-13T03:59:24.851Z,101047.31
2022-12-13T04:04:30.005Z,101044.31
2022-12-13T04:09:33.858Z,101053.66
2022-12-13T04:14:37.595Z,101042.66
2022-12-13T04:19:42.598Z,101041.44
2022-12-13T04:24:46.323Z,101040.25
2022-12-13T04:29:50.025Z,101039.19
2022-12-13T04:35:01.037Z,101039.78
2022-12-13T04:40:06.420Z,101029.50
2022-12-13T04:45:16.180Z,101027.88
2022-12-13T04:50:21.443Z,101031.00
2022-12-13T04:55:25.155Z,101028.69
2022-12-13T05:00:28.887Z,101030.91
2022-12-13T05:05:34.102Z,101032.22
2022-12-13T05:10:38.674Z,101026.72
2022-12-13T05:15:42.436Z,101017.50
2022-12-13T05:20:47.641Z,101013.03
2022-12-13T05:25:51.816Z,101013.03
2022-12-13T05:30:57.688Z,101002.44
2022-12-13T05:36:02.783Z,101003.75
2022-12-13T05:41:07.388Z,101002.72
2022-12-13T05:46:11.944Z,101002.22
2022-12-13T05:51:17.016Z,101003.37
2022-12-13T05:56:22.328Z,101006.63
2022-12-13T06:01:26.791Z,101006.63
2022-12-13T06:06:31.834Z,101004.84
2022-12-13T06:11:35.588Z,101013.31
2022-12-13T06:16:47.362Z,101008.84
2022-12-13T06:21:54.831Z,101010.31
2022-12-13T06:27:00.086Z,101011.75
2022-12-13T06:32:04.602Z,101006.56
2022-12-13T06:37:13.503Z,101006.56
2022-12-13T06:42:22.244Z,101010.88
2022-12-13T06:47:32.094Z,101005.81
2022-12-13T06:52:37.933Z,100999.87
2022-12-13T06:57:43.877Z,100997.94
2022-12-13T07:02:53.253Z,100987.09
2022-12-13T07:07:58.826Z,100991.66
2022-12-13T07:13:03.712Z,100989.31
2022-12-13T07:18:07.442Z,100990.94
2022-12-13T07:23:12.649Z,100990.19
2022-12-13T07:28:16.333Z,100989.87
2022-12-13T07:33:22.087Z,100998.34
2022-12-13T07:38:27.998Z,100997.44
2022-12-13T07:43:31.941Z,101006.31
2022-12-13T07:48:35.942Z,101009.31
2022-12-13T07:53:41.527Z,101016.81
2022-12-13T07:58:47.397Z,101007.28
2022-12-13T08:03:51.277Z,101007.94
2022-12-13T08:08:58.190Z,101007.78
2022-12-13T08:14:02.059Z,101012.72
2022-12-13T08:19:05.845Z,101015.75
2022-12-13T08:24:15.634Z,101029.56
2022-12-13T08:29:23.372Z,101028.59
2022-12-13T08:34:37.856Z,101028.31
2022-12-13T08:39:42.949Z,101025.69
2022-12-13T08:44:50.683Z,101021.88
2022-12-13T08:50:02.353Z,101021.91
2022-12-13T08:55:09.783Z,101041.31
2022-12-13T09:00:16.140Z,101037.34
2022-12-13T09:05:33.014Z,101035.50
2022-12-13T09:10:40.017Z,101040.78
2022-12-13T09:15:45.712Z,101044.06
2022-12-13T09:20:50.209Z,101040.50
2022-12-13T09:26:05.182Z,101040.56
2022-12-13T09:31:10.974Z,101042.50
2022-12-13T09:36:16.894Z,101033.25
2022-12-13T09:41:29.007Z,101034.25
2022-12-13T09:46:44.344Z,101018.62
2022-12-13T09:52:10.035Z,101024.75
2022-12-13T09:57:32.302Z,101022.25
2022-12-13T10:02:45.411Z,101014.53
2022-12-13T10:07:49.891Z,101017.94
2022-12-13T10:12:59.819Z,101016.75
2022-12-13T10:18:05.503Z,101008.25
2022-12-13T10:23:33.421Z,101014.78
2022-12-13T10:28:35.086Z,100991.50
2022-12-13T10:33:43.358Z,100987.62
2022-12-13T10:38:47.736Z,100981.31
2022-12-13T10:44:16.014Z,100976.09
2022-12-13T10:49:22.657Z,100974.09
2022-12-13T10:54:29.812Z,100955.53
2022-12-13T10:59:46.523Z,100952.31
2022-12-13T11:04:50.248Z,100954.78
2022-12-13T11:09:54.029Z,100943.25
2022-12-13T11:15:01.864Z,100934.56
2022-12-13T11:20:16.279Z,100932.75
2022-12-13T11:25:24.309Z,100939.13
2022-12-13T11:30:35.165Z,100934.25
2022-12-13T11:35:57.886Z,100934.75
2022-12-13T11:41:11.385Z,100930.09
2022-12-13T11:46:20.897Z,100910.69
2022-12-13T11:51:29.105Z,100907.09
2022-12-13T11:56:38.718Z,100899.75
2022-12-13T12:01:51.779Z,100891.50
2022-12-13T12:07:12.181Z,100895.22
2022-12-13T12:12:29.204Z,100879.97
2022-12-13T12:17:42.007Z,100866.44
2022-12-13T12:22:56.213Z,100874.69
2022-12-13T12:28:10.016Z,100888.94
2022-12-13T12:33:27.455Z,100882.03
2022-12-13T12:38:52.784Z,100882.31
2022-12-13T12:44:06.686Z,100876.12
2022-12-13T12:49:49.850Z,100884.03
2022-12-13T12:55:03.610Z,100882.38
2022-12-13T13:00:13.227Z,100868.91
2022-12-13T13:05:23.163Z,100866.28
2022-12-13T13:10:27.594Z,100860.59
2022-12-13T13:15:57.822Z,100860.81
2022-12-13T13:21:34.719Z,100862.62
2022-12-13T13:26:40.151Z,100857.53
2022-12-13T13:32:01.572Z,100862.03
2022-12-13T13:37:29.132Z,100862.09
2022-12-13T13:42:34.094Z,100846.66
2022-12-13T13:47:40.819Z,100840.84
2022-12-13T13:52:58.937Z,100834.16
2022-12-13T13:58:38.993Z,100827.72
2022-12-13T14:04:22.510Z,100827.19
2022-12-13T14:10:04.727Z,100818.03
2022-12-13T14:16:06.492Z,100827.06
2022-12-13T14:21:20.251Z,100817.38
2022-12-13T14:26:41.208Z,100807.22
2022-12-13T14:31:47.825Z,100811.28
2022-12-13T14:36:59.941Z,100804.03
2022-12-13T14:42:23.738Z,100803.00
2022-12-13T14:47:28.316Z,100797.25
2022-12-13T14:52:39.979Z,100793.63
2022-12-13T14:57:54.120Z,100769.84
2022-12-13T15:03:00.511Z,100775.69
2022-12-13T15:08:10.864Z,100777.81
2022-12-13T15:13:27.030Z,100771.97
2022-12-13T15:18:34.939Z,100758.91
2022-12-13T15:23:49.100Z,100740.97
2022-12-13T15:29:10.185Z,100739.22
2022-12-13T15:34:35.147Z,100730.28
2022-12-13T15:39:41.032Z,100739.03
2022-12-13T15:44:56.055Z,100732.53
2022-12-13T15:50:01.048Z,100733.91
2022-12-13T15:55:28.396Z,100734.41
2022-12-13T16:00:36.193Z,100734.66
2022-12-13T16:05:47.274Z,100728.31
2022-12-13T16:10:53.667Z,100730.44
2022-12-13T16:16:08.697Z,100738.69
2022-12-13T16:21:14.227Z,100725.72
2022-12-13T16:26:24.304Z,100731.06
2022-12-13T16:31:35.549Z,100730.19
2022-12-13T16:36:39.894Z,100733.34
2022-12-13T16:41:45.839Z,100723.66
2022-12-13T16:47:11.689Z,100731.91
2022-12-13T16:52:15.056Z,100727.66
2022-12-13T16:57:18.782Z,100717.53
2022-12-13T17:02:23.967Z,100712.91
2022-12-13T17:07:27.993Z,100714.16
2022-12-13T17:12:31.954Z,100716.97
2022-12-13T17:17:39.006Z,100709.25
2022-12-13T17:22:43.563Z,100721.16
2022-12-13T17:27:47.388Z,100721.66
2022-12-13T17:32:52.517Z,100716.59
2022-12-13T17:37:56.399Z,100711.37
2022-12-13T17:43:00.702Z,100698.69
2022-12-13T17:48:06.811Z,100699.16
2022-12-13T17:53:10.879Z,100701.69
2022-12-13T17:58:14.586Z,100705.63
2022-12-13T18:03:20.117Z,100698.63
2022-12-13T18:08:23.942Z,100700.56
2022-12-13T18:13:28.101Z,100690.66
2022-12-13T18:18:34.918Z,100686.69
2022-12-13T18:23:39.547Z,100697.03
2022-12-13T18:28:43.776Z,100693.16
2022-12-13T18:33:49.643Z,100689.84
2022-12-13T18:38:54.040Z,100677.37
2022-12-13T18:44:00.304Z,100673.19
2022-12-13T18:49:06.705Z,100658.88
2022-12-13T18:54:10.856Z,100661.06
2022-12-13T18:59:14.597Z,100661.63
2022-12-13T19:04:19.676Z,100658.34
2022-12-13T19:09:23.706Z,100652.78
2022-12-13T19:14:28.209Z,100644.28
2022-12-13T19:19:33.530Z,100639.44
2022-12-13T19:24:37.255Z,100630.81
2022-12-13T19:29:41.198Z,100619.00
2022-12-13T19:34:46.455Z,100625.09
2022-12-13T19:39:50.118Z,100631.53
2022-12-13T19:44:54.003Z,100619.16
2022-12-13T19:49:59.103Z,100613.16
2022-12-13T19:55:02.786Z,100613.06
2022-12-13T20:00:07.930Z,100604.56
2022-12-13T20:05:12.797Z,100584.34
2022-12-13T20:10:16.498Z,100575.25
2022-12-13T20:15:22.147Z,100566.81
2022-12-13T20:20:40.913Z,100565.31
2022-12-13T20:26:00.496Z,100554.06
2022-12-13T20:31:06.858Z,100559.47
2022-12-13T20:36:24.059Z,100545.03
2022-12-13T20:41:29.955Z,100536.25
2022-12-13T20:46:33.749Z,100534.50
2022-12-13T20:51:41.510Z,100513.06
2022-12-13T20:56:45.272Z,100508.97
2022-12-13T21:01:49.500Z,100503.62
2022-12-13T21:06:54.719Z,100499.19
2022-12-13T21:11:58.965Z,100506.03
2022-12-13T21:17:04.640Z,100495.78
2022-12-13T21:22:09.680Z,100486.16
2022-12-13T21:27:13.532Z,100480.81
2022-12-13T21:32:17.243Z,100479.53
2022-12-13T21:37:22.388Z,100468.63
2022-12-13T21:42:26.139Z,100469.19
2022-12-13T21:47:30.030Z,100462.53
2022-12-13T21:52:35.175Z,100448.03
2022-12-13T21:57:56.727Z,100437.34
2022-12-13T22:03:00.665Z,100432.44
2022-12-13T22:08:06.482Z,100431.25
2022-12-13T22:13:10.217Z,100428.09
2022-12-13T22:18:14.126Z,100417.56
2022-12-13T22:23:19.193Z,100416.31
2022-12-13T22:28:22.951Z,100414.62
2022-12-13T22:33:26.667Z,100405.44
2022-12-13T22:38:31.752Z,100403.25
2022-12-13T22:43:35.987Z,100397.81
2022-12-13T22:48:40.313Z,100409.47
2022-12-13T22:53:47.541Z,100416.19
2022-12-13T22:58:55.070Z,100419.75
2022-12-13T23:03:59.917Z,100429.12
2022-12-13T23:09:07.308Z,100423.16
2022-12-13T23:14:15.365Z,100410.75
2022-12-13T23:24:44.131Z,100413.16
2022-12-13T23:29:47.911Z,100398.97
2022-12-13T23:34:51.799Z,100388.09
2022-12-13T23:39:56.874Z,100375.28
2022-12-13T23:45:00.613Z,100375.50
2022-12-13T23:50:06.035Z,100376.53
2022-12-13T23:55:11.757Z,100368.06
